createdAt,value
2016-11-27T00:00:23.276Z,0
2016-11-27T00:01:23.260Z,0
2016-11-27T00:02:23.260Z,0
2016-11-27T00:03:23.194Z,0
2016-11-27T00:04:23.204Z,0
2016-11-27T00:05:23.182Z,0
2016-11-27T00:07:23.146Z,0
2016-11-27T00:08:23.322Z,0
2016-11-27T00:09:23.087Z,0
2016-11-27T00:10:23.096Z,0
2016-11-27T00:11:23.095Z,0
2016-11-27T00:12:23.033Z,0
2016-11-27T00:13:23.035Z,0
2016-11-27T00:14:23.018Z,0
2016-11-27T00:15:22.969Z,0
2016-11-27T00:16:22.997Z,0
2016-11-27T00:17:22.939Z,0
2016-11-27T00:18:22.951Z,0
2016-11-27T00:19:22.921Z,0
2016-11-27T00:20:22.883Z,0
2016-11-27T00:21:22.846Z,0
2016-11-27T00:22:22.833Z,0
2016-11-27T00:23:22.809Z,0
2016-11-27T00:24:22.806Z,0
2016-11-27T00:25:22.810Z,0
2016-11-27T00:26:22.749Z,0
2016-11-27T00:27:22.739Z,0
2016-11-27T00:28:22.753Z,0
2016-11-27T00:29:22.723Z,0
2016-11-27T00:30:22.690Z,0
2016-11-27T00:31:22.727Z,0
2016-11-27T00:32:22.687Z,0
2016-11-27T00:33:22.640Z,0
2016-11-27T00:34:22.599Z,0
2016-11-27T00:35:22.780Z,0
2016-11-27T00:36:22.770Z,0
2016-11-27T00:37:22.567Z,0
2016-11-27T00:38:22.517Z,0
2016-11-27T00:39:22.517Z,0
2016-11-27T00:40:22.521Z,0
2016-11-27T00:41:22.496Z,0
2016-11-27T00:42:22.466Z,0
2016-11-27T00:43:22.453Z,0
2016-11-27T00:44:22.427Z,0
2016-11-27T00:45:22.396Z,0
2016-11-27T00:46:22.388Z,0
2016-11-27T00:47:22.376Z,0
2016-11-27T00:48:22.335Z,0
2016-11-27T00:49:22.317Z,0
2016-11-27T00:50:22.304Z,0
2016-11-27T00:51:22.294Z,0
2016-11-27T00:52:22.290Z,0
2016-11-27T00:53:22.231Z,0
2016-11-27T00:54:22.268Z,0
2016-11-27T00:55:22.212Z,0
2016-11-27T00:56:22.199Z,0
2016-11-27T00:57:22.188Z,0
2016-11-27T00:58:22.173Z,0
2016-11-27T00:59:22.136Z,0
2016-11-27T01:00:22.147Z,0
2016-11-27T01:01:22.095Z,0
2016-11-27T01:02:22.056Z,0
2016-11-27T01:03:22.060Z,0
2016-11-27T01:04:22.063Z,0
2016-11-27T01:05:22.013Z,0
2016-11-27T01:06:22.039Z,0
2016-11-27T01:07:21.972Z,0
2016-11-27T01:08:21.965Z,0
2016-11-27T01:09:21.948Z,0
2016-11-27T01:10:21.909Z,0
2016-11-27T01:11:21.896Z,0
2016-11-27T01:12:21.848Z,0
2016-11-27T01:13:22.002Z,0
2016-11-27T01:14:21.824Z,0
2016-11-27T01:15:21.851Z,0
2016-11-27T01:16:21.804Z,0
2016-11-27T01:17:21.798Z,0
2016-11-27T01:18:21.766Z,0
2016-11-27T01:19:21.743Z,0
2016-11-27T01:20:21.728Z,0
2016-11-27T01:21:21.998Z,0
2016-11-27T01:22:22.004Z,0
2016-11-27T01:23:21.643Z,0
2016-11-27T01:24:21.653Z,0
2016-11-27T01:25:21.650Z,0
2016-11-27T01:26:21.605Z,0
2016-11-27T01:27:21.576Z,0
2016-11-27T01:28:21.586Z,0
2016-11-27T01:29:21.850Z,0
2016-11-27T01:30:21.535Z,0
2016-11-27T01:31:21.537Z,0
2016-11-27T01:32:21.484Z,0
2016-11-27T01:33:21.479Z,0
2016-11-27T01:34:21.747Z,0
2016-11-27T01:35:21.461Z,0
2016-11-27T01:36:21.435Z,0
2016-11-27T01:37:21.381Z,0
2016-11-27T01:38:21.382Z,0
2016-11-27T01:39:21.377Z,0
2016-11-27T01:40:21.364Z,0
2016-11-27T01:41:21.327Z,0
2016-11-27T01:42:21.300Z,0
2016-11-27T01:43:21.285Z,0
2016-11-27T01:44:21.249Z,0
2016-11-27T01:45:21.220Z,0
2016-11-27T01:46:21.239Z,0
2016-11-27T01:47:21.190Z,0
2016-11-27T01:48:21.184Z,0
2016-11-27T01:49:21.179Z,0
2016-11-27T01:50:21.116Z,0
2016-11-27T01:51:21.137Z,0
2016-11-27T01:52:21.107Z,0
2016-11-27T01:53:21.098Z,0
2016-11-27T01:54:21.075Z,0
2016-11-27T01:55:21.058Z,0
2016-11-27T01:56:21.043Z,0
2016-11-27T01:57:21.032Z,0
2016-11-27T01:58:21.022Z,0
2016-11-27T01:59:20.977Z,0
2016-11-27T02:00:20.959Z,0
2016-11-27T02:01:20.925Z,0
2016-11-27T02:02:20.925Z,0
2016-11-27T02:03:20.898Z,0
2016-11-27T02:04:20.901Z,0
2016-11-27T02:05:20.855Z,0
2016-11-27T02:06:20.836Z,0
2016-11-27T02:07:20.814Z,0
2016-11-27T02:08:20.823Z,0
2016-11-27T02:09:20.814Z,0
2016-11-27T02:10:20.771Z,0
2016-11-27T02:11:20.766Z,0
2016-11-27T02:12:20.726Z,0
2016-11-27T02:13:20.693Z,0
2016-11-27T02:14:20.716Z,0
2016-11-27T02:15:20.680Z,0
2016-11-27T02:16:20.629Z,0
2016-11-27T02:17:20.640Z,0
2016-11-27T02:18:20.634Z,0
2016-11-27T02:19:20.695Z,0
2016-11-27T02:20:20.547Z,0
2016-11-27T02:21:20.581Z,0
2016-11-27T02:22:20.541Z,0
2016-11-27T02:23:20.510Z,0
2016-11-27T02:24:20.520Z,0
2016-11-27T02:25:20.479Z,0
2016-11-27T02:26:20.483Z,0
2016-11-27T02:27:20.444Z,0
2016-11-27T02:28:20.426Z,0
2016-11-27T02:29:20.401Z,0
2016-11-27T02:30:20.424Z,0
2016-11-27T02:31:20.360Z,0
2016-11-27T02:32:20.703Z,0
2016-11-27T02:33:20.351Z,0
2016-11-27T02:34:20.315Z,0
2016-11-27T02:35:20.307Z,0
2016-11-27T02:36:20.308Z,0
2016-11-27T02:37:20.255Z,0
2016-11-27T02:38:20.224Z,0
2016-11-27T02:39:20.212Z,0
2016-11-27T02:40:20.235Z,0
2016-11-27T02:41:20.206Z,0
2016-11-27T02:42:20.199Z,0
2016-11-27T02:43:20.155Z,0
2016-11-27T02:44:20.160Z,0
2016-11-27T02:45:20.130Z,0
2016-11-27T02:46:20.115Z,0
2016-11-27T02:47:20.071Z,0
2016-11-27T02:48:20.051Z,0
2016-11-27T02:49:20.024Z,0
2016-11-27T02:50:20.006Z,0
2016-11-27T02:51:19.998Z,0
2016-11-27T02:52:19.994Z,0
2016-11-27T02:53:19.942Z,0
2016-11-27T02:54:19.950Z,0
2016-11-27T02:55:19.915Z,0
2016-11-27T02:56:19.953Z,0
2016-11-27T02:57:19.922Z,0
2016-11-27T02:58:19.856Z,0
2016-11-27T02:59:19.849Z,0
2016-11-27T03:00:19.822Z,0
2016-11-27T03:01:19.822Z,0
2016-11-27T03:02:19.818Z,0
2016-11-27T03:03:19.794Z,0
2016-11-27T03:04:19.760Z,0
2016-11-27T03:05:19.765Z,0
2016-11-27T03:06:19.723Z,0
2016-11-27T03:07:19.694Z,0
2016-11-27T03:08:19.661Z,0
2016-11-27T03:09:19.672Z,0
2016-11-27T03:10:19.653Z,0
2016-11-27T03:11:19.622Z,0
2016-11-27T03:12:19.631Z,0
2016-11-27T03:13:19.585Z,0
2016-11-27T03:14:19.959Z,0
2016-11-27T03:15:19.545Z,0
2016-11-27T03:16:19.558Z,0
2016-11-27T03:17:19.532Z,0
2016-11-27T03:18:19.497Z,0
2016-11-27T03:19:19.497Z,0
2016-11-27T03:20:19.489Z,0
2016-11-27T03:21:19.474Z,0
2016-11-27T03:22:19.427Z,0
2016-11-27T03:23:19.435Z,0
2016-11-27T03:24:19.371Z,0
2016-11-27T03:25:19.352Z,0
2016-11-27T03:26:19.369Z,0
2016-11-27T03:27:19.612Z,0
2016-11-27T03:28:19.326Z,0
2016-11-27T03:29:19.297Z,0
2016-11-27T03:30:19.269Z,0
2016-11-27T03:31:19.269Z,0
2016-11-27T03:32:19.254Z,0
2016-11-27T03:33:19.228Z,0
2016-11-27T03:34:19.217Z,0
2016-11-27T03:35:19.189Z,0
2016-11-27T03:36:19.156Z,0
2016-11-27T03:37:19.163Z,0
2016-11-27T03:38:19.160Z,0
2016-11-27T03:39:19.440Z,0
2016-11-27T03:40:19.099Z,0
2016-11-27T03:41:19.068Z,0
2016-11-27T03:42:19.093Z,0
2016-11-27T03:43:19.054Z,0
2016-11-27T03:44:19.048Z,0
2016-11-27T03:45:19.005Z,0
2016-11-27T03:46:18.995Z,0
2016-11-27T03:47:18.999Z,0
2016-11-27T03:48:18.963Z,0
2016-11-27T03:49:18.936Z,0
2016-11-27T03:50:18.917Z,0
2016-11-27T03:51:18.913Z,0
2016-11-27T03:52:18.882Z,0
2016-11-27T03:53:18.856Z,0
2016-11-27T03:54:18.865Z,0
2016-11-27T03:55:18.821Z,0
2016-11-27T03:56:18.824Z,0
2016-11-27T03:57:18.832Z,0
2016-11-27T03:58:18.800Z,0
2016-11-27T03:59:18.736Z,0
2016-11-27T04:00:18.748Z,0
2016-11-27T04:01:18.725Z,0
2016-11-27T04:02:18.709Z,0
2016-11-27T04:03:18.702Z,0
2016-11-27T04:04:18.697Z,0
2016-11-27T04:05:18.658Z,0
2016-11-27T04:06:18.642Z,0
2016-11-27T04:07:18.609Z,0
2016-11-27T04:08:18.614Z,0
2016-11-27T04:09:18.580Z,0
2016-11-27T04:10:18.576Z,0
2016-11-27T04:11:18.569Z,0
2016-11-27T04:12:18.528Z,0
2016-11-27T04:13:18.506Z,0
2016-11-27T04:14:18.513Z,0
2016-11-27T04:15:18.503Z,0
2016-11-27T04:16:18.467Z,0
2016-11-27T04:17:18.458Z,0
2016-11-27T04:18:18.422Z,0
2016-11-27T04:19:18.397Z,0
2016-11-27T04:20:18.360Z,0
2016-11-27T04:21:18.412Z,0
2016-11-27T04:22:18.335Z,0
2016-11-27T04:23:18.379Z,0
2016-11-27T04:24:18.344Z,0
2016-11-27T04:25:18.308Z,0
2016-11-27T04:26:18.276Z,0
2016-11-27T04:27:18.246Z,0
2016-11-27T04:28:18.242Z,0
2016-11-27T04:29:18.211Z,0
2016-11-27T04:30:18.240Z,0
2016-11-27T04:31:18.168Z,0
2016-11-27T04:32:18.160Z,0
2016-11-27T04:33:18.150Z,0
2016-11-27T04:34:18.104Z,0
2016-11-27T04:35:18.099Z,0
2016-11-27T04:36:18.094Z,0
2016-11-27T04:37:18.076Z,0
2016-11-27T04:38:18.057Z,0
2016-11-27T04:39:18.050Z,0
2016-11-27T04:40:18.019Z,0
2016-11-27T04:41:18.013Z,0
2016-11-27T04:42:17.978Z,0
2016-11-27T04:43:17.996Z,0
2016-11-27T04:44:17.938Z,0
2016-11-27T04:45:17.926Z,0
2016-11-27T04:46:17.891Z,0
2016-11-27T04:47:17.876Z,0
2016-11-27T04:48:17.905Z,0
2016-11-27T04:49:17.848Z,0
2016-11-27T04:50:17.824Z,0
2016-11-27T04:51:17.819Z,0
2016-11-27T04:52:17.848Z,0
2016-11-27T04:53:17.771Z,0
2016-11-27T04:54:17.765Z,0
2016-11-27T04:55:17.735Z,0
2016-11-27T04:56:17.712Z,0
2016-11-27T04:57:17.682Z,0
2016-11-27T04:58:17.677Z,0
2016-11-27T04:59:17.661Z,0
2016-11-27T05:00:17.656Z,0
2016-11-27T05:01:17.639Z,0
2016-11-27T05:02:17.594Z,0
2016-11-27T05:03:17.585Z,0
2016-11-27T05:04:17.544Z,0
2016-11-27T05:05:17.563Z,0
2016-11-27T05:06:17.535Z,0
2016-11-27T05:07:17.510Z,0
2016-11-27T05:08:17.503Z,0
2016-11-27T05:09:17.440Z,0
2016-11-27T05:10:17.472Z,0
2016-11-27T05:11:17.425Z,0
2016-11-27T05:12:17.432Z,0
2016-11-27T05:13:17.407Z,0
2016-11-27T05:14:17.360Z,0
2016-11-27T05:15:17.358Z,0
2016-11-27T05:16:17.327Z,0
2016-11-27T05:17:17.315Z,0
2016-11-27T05:18:17.278Z,0
2016-11-27T05:19:17.253Z,0
2016-11-27T05:20:17.264Z,0
2016-11-27T05:21:17.234Z,0
2016-11-27T05:22:17.205Z,0
2016-11-27T05:23:17.198Z,0
2016-11-27T05:24:17.171Z,0
2016-11-27T05:25:17.141Z,0
2016-11-27T05:26:17.117Z,0
2016-11-27T05:27:17.119Z,0
2016-11-27T05:28:17.094Z,0
2016-11-27T05:29:17.097Z,0
2016-11-27T05:30:17.071Z,0
2016-11-27T05:31:17.034Z,0
2016-11-27T05:32:17.021Z,0
2016-11-27T05:33:16.983Z,0
2016-11-27T05:34:16.994Z,0
2016-11-27T05:35:16.950Z,0
2016-11-27T05:36:16.954Z,0
2016-11-27T05:37:16.936Z,0
2016-11-27T05:38:16.933Z,0
2016-11-27T05:39:16.877Z,0
2016-11-27T05:40:16.855Z,0
2016-11-27T05:41:16.831Z,0
2016-11-27T05:42:16.820Z,0
2016-11-27T05:43:16.794Z,0
2016-11-27T05:44:16.779Z,0
2016-11-27T05:45:16.746Z,0
2016-11-27T05:46:16.769Z,0
2016-11-27T05:47:16.724Z,0
2016-11-27T05:48:16.721Z,0
2016-11-27T05:49:16.708Z,0
2016-11-27T05:50:16.679Z,0
2016-11-27T05:51:16.665Z,0
2016-11-27T05:52:16.650Z,0
2016-11-27T05:53:16.605Z,0
2016-11-27T05:54:16.576Z,0
2016-11-27T05:55:16.566Z,0
2016-11-27T05:56:16.543Z,0
2016-11-27T05:57:16.528Z,0
2016-11-27T05:58:16.495Z,0
2016-11-27T05:59:16.492Z,0
2016-11-27T06:00:16.465Z,0
2016-11-27T06:01:16.433Z,0
2016-11-27T06:02:16.441Z,0
2016-11-27T06:03:16.412Z,0
2016-11-27T06:04:16.398Z,0
2016-11-27T06:05:16.402Z,0
2016-11-27T06:06:16.372Z,0
2016-11-27T06:07:16.355Z,0
2016-11-27T06:08:16.339Z,0
2016-11-27T06:09:16.316Z,0
2016-11-27T06:10:16.285Z,0
2016-11-27T06:11:16.256Z,0
2016-11-27T06:12:16.226Z,0
2016-11-27T06:13:16.194Z,0
2016-11-27T06:14:16.195Z,0
2016-11-27T06:15:16.200Z,0
2016-11-27T06:16:16.195Z,0
2016-11-27T06:17:16.131Z,0
2016-11-27T06:18:16.157Z,0
2016-11-27T06:19:16.116Z,0
2016-11-27T06:20:16.103Z,0
2016-11-27T06:21:16.072Z,0
2016-11-27T06:22:16.043Z,0
2016-11-27T06:23:16.299Z,0
2016-11-27T06:24:16.026Z,5
2016-11-27T06:25:15.985Z,5
2016-11-27T06:26:15.987Z,5
2016-11-27T06:27:15.949Z,5
2016-11-27T06:28:15.985Z,5
2016-11-27T06:29:15.929Z,10
2016-11-27T06:30:15.881Z,10
2016-11-27T06:31:15.910Z,10
2016-11-27T06:32:15.838Z,15
2016-11-27T06:33:15.821Z,15
2016-11-27T06:34:15.832Z,15
2016-11-27T06:35:15.798Z,20
2016-11-27T06:36:15.803Z,20
2016-11-27T06:37:15.789Z,25
2016-11-27T06:38:15.752Z,25
2016-11-27T06:39:15.708Z,25
2016-11-27T06:40:15.725Z,30
2016-11-27T06:41:15.737Z,30
2016-11-27T06:42:15.677Z,30
2016-11-27T06:43:15.642Z,35
2016-11-27T06:44:15.632Z,35
2016-11-27T06:45:15.590Z,40
2016-11-27T06:46:15.591Z,40
2016-11-27T06:47:15.582Z,45
2016-11-27T06:48:15.868Z,50
2016-11-27T06:49:15.548Z,50
2016-11-27T06:50:15.551Z,55
2016-11-27T06:51:15.512Z,55
2016-11-27T06:52:15.465Z,60
2016-11-27T06:53:15.452Z,65
2016-11-27T06:54:15.450Z,70
2016-11-27T06:55:15.415Z,75
2016-11-27T06:56:15.415Z,80
2016-11-27T06:57:15.382Z,80
2016-11-27T06:58:15.351Z,85
2016-11-27T06:59:15.363Z,90
2016-11-27T07:00:15.612Z,95
2016-11-27T07:01:15.301Z,95
2016-11-27T07:02:15.288Z,95
2016-11-27T07:03:15.589Z,105
2016-11-27T07:04:15.237Z,115
2016-11-27T07:05:15.207Z,115
2016-11-27T07:06:15.217Z,120
2016-11-27T07:07:15.181Z,125
2016-11-27T07:08:15.149Z,115
2016-11-27T07:09:15.147Z,125
2016-11-27T07:10:15.091Z,135
2016-11-27T07:11:15.100Z,130
2016-11-27T07:12:15.089Z,185
2016-11-27T07:13:15.074Z,195
2016-11-27T07:14:15.048Z,170
2016-11-27T07:15:15.031Z,185
2016-11-27T07:16:15.018Z,190
2016-11-27T07:17:14.989Z,195
2016-11-27T07:18:14.965Z,215
2016-11-27T07:19:14.950Z,300
2016-11-27T07:20:14.943Z,350
2016-11-27T07:21:14.904Z,600
2016-11-27T07:22:14.886Z,580
2016-11-27T07:23:14.848Z,450
2016-11-27T07:24:14.872Z,540
2016-11-27T07:25:14.832Z,635
2016-11-27T07:26:14.803Z,545
2016-11-27T07:27:14.792Z,610
2016-11-27T07:28:14.751Z,575
2016-11-27T07:29:14.732Z,715
2016-11-27T07:30:14.726Z,735
2016-11-27T07:31:14.707Z,610
2016-11-27T07:32:14.675Z,570
2016-11-27T07:33:14.661Z,805
2016-11-27T07:34:14.660Z,780
2016-11-27T07:35:14.623Z,600
2016-11-27T07:36:14.640Z,765
2016-11-27T07:37:14.616Z,725
2016-11-27T07:38:14.542Z,925
2016-11-27T07:39:14.548Z,990
2016-11-27T07:40:14.558Z,870
2016-11-27T07:41:14.525Z,790
2016-11-27T07:42:14.513Z,870
2016-11-27T07:43:14.491Z,795
2016-11-27T07:44:14.461Z,710
2016-11-27T07:45:14.442Z,1485
2016-11-27T07:46:14.409Z,1120
2016-11-27T07:47:14.424Z,930
2016-11-27T07:48:14.388Z,825
2016-11-27T07:49:14.362Z,945
2016-11-27T07:50:14.373Z,925
2016-11-27T07:51:14.327Z,1235
2016-11-27T07:52:14.344Z,905
2016-11-27T07:53:14.275Z,985
2016-11-27T07:54:14.282Z,1130
2016-11-27T07:55:14.252Z,1470
2016-11-27T07:56:14.249Z,1260
2016-11-27T07:57:14.200Z,1440
2016-11-27T07:58:14.215Z,945
2016-11-27T07:59:14.167Z,1295
2016-11-27T08:00:14.160Z,1000
2016-11-27T08:01:14.167Z,1220
2016-11-27T08:02:14.120Z,1170
2016-11-27T08:03:14.098Z,1460
2016-11-27T08:04:14.090Z,1315
2016-11-27T08:05:14.077Z,1395
2016-11-27T08:06:14.055Z,1425
2016-11-27T08:07:14.031Z,1315
2016-11-27T08:08:14.022Z,1095
2016-11-27T08:09:13.972Z,2045
2016-11-27T08:10:13.976Z,1460
2016-11-27T08:11:13.966Z,1405
2016-11-27T08:12:13.915Z,845
2016-11-27T08:13:13.901Z,1160
2016-11-27T08:14:13.928Z,1550
2016-11-27T08:15:13.876Z,1245
2016-11-27T08:16:14.132Z,1165
2016-11-27T08:17:13.853Z,1125
2016-11-27T08:18:13.799Z,1345
2016-11-27T08:19:13.795Z,1650
2016-11-27T08:20:13.787Z,1695
2016-11-27T08:21:13.747Z,1135
2016-11-27T08:22:13.770Z,1795
2016-11-27T08:23:13.727Z,1720
2016-11-27T08:24:13.685Z,1305
2016-11-27T08:25:13.688Z,1545
2016-11-27T08:26:13.643Z,1650
2016-11-27T08:27:13.673Z,1670
2016-11-27T08:28:13.626Z,1430
2016-11-27T08:29:13.603Z,1500
2016-11-27T08:30:13.628Z,1600
2016-11-27T08:31:13.561Z,1560
2016-11-27T08:32:13.556Z,1325
2016-11-27T08:33:13.871Z,1555
2016-11-27T08:34:13.537Z,1555
2016-11-27T08:35:13.516Z,1350
2016-11-27T08:36:13.493Z,1365
2016-11-27T08:37:13.469Z,1465
2016-11-27T08:38:13.454Z,1565
2016-11-27T08:39:13.423Z,1670
2016-11-27T08:40:13.408Z,1130
2016-11-27T08:41:13.399Z,1415
2016-11-27T08:42:13.382Z,1810
2016-11-27T08:43:13.393Z,1500
2016-11-27T08:44:13.359Z,1420
2016-11-27T08:45:13.315Z,1770
2016-11-27T08:46:13.306Z,1545
2016-11-27T08:47:13.254Z,1890
2016-11-27T08:48:13.262Z,1850
2016-11-27T08:49:13.231Z,1695
2016-11-27T08:50:13.244Z,1950
2016-11-27T08:51:13.209Z,1885
2016-11-27T08:52:13.202Z,2265
2016-11-27T08:53:13.186Z,1930
2016-11-27T08:54:13.156Z,2360
2016-11-27T08:55:13.144Z,1370
2016-11-27T08:56:13.141Z,2015
2016-11-27T08:57:13.107Z,2200
2016-11-27T08:58:13.083Z,1780
2016-11-27T08:59:13.087Z,1890
2016-11-27T09:00:13.083Z,1855
2016-11-27T09:01:13.033Z,1680
2016-11-27T09:02:13.019Z,2055
2016-11-27T09:03:12.988Z,1760
2016-11-27T09:04:12.998Z,1525
2016-11-27T09:05:12.969Z,1475
2016-11-27T09:06:12.948Z,1445
2016-11-27T09:07:12.904Z,1910
2016-11-27T09:08:12.889Z,1520
2016-11-27T09:09:12.933Z,1960
2016-11-27T09:10:12.866Z,2755
2016-11-27T09:11:12.860Z,1855
2016-11-27T09:12:12.815Z,1775
2016-11-27T09:13:12.804Z,1760
2016-11-27T09:14:12.781Z,1420
2016-11-27T09:15:12.782Z,1835
2016-11-27T09:16:12.777Z,1985
2016-11-27T09:17:12.727Z,1725
2016-11-27T09:18:12.717Z,2050
2016-11-27T09:19:12.726Z,1360
2016-11-27T09:20:12.685Z,1290
2016-11-27T09:21:12.697Z,2500
2016-11-27T09:22:12.645Z,2105
2016-11-27T09:23:12.617Z,2320
2016-11-27T09:24:12.603Z,1715
2016-11-27T09:25:12.633Z,1925
2016-11-27T09:26:12.546Z,1975
2016-11-27T09:27:12.551Z,1830
2016-11-27T09:28:12.561Z,2340
2016-11-27T09:29:12.516Z,1495
2016-11-27T09:30:12.501Z,1805
2016-11-27T09:31:12.499Z,1315
2016-11-27T09:32:12.487Z,1400
2016-11-27T09:33:12.450Z,1495
2016-11-27T09:34:12.419Z,1155
2016-11-27T09:35:12.427Z,1760
2016-11-27T09:36:12.374Z,2440
2016-11-27T09:37:12.353Z,2240
2016-11-27T09:38:12.376Z,2200
2016-11-27T09:39:12.330Z,2385
2016-11-27T09:40:12.323Z,1995
2016-11-27T09:41:12.316Z,1595
2016-11-27T09:42:12.265Z,1940
2016-11-27T09:43:12.273Z,1730
2016-11-27T09:44:12.238Z,1585
2016-11-27T09:45:12.228Z,1580
2016-11-27T09:46:12.210Z,1850
2016-11-27T09:47:12.176Z,1950
2016-11-27T09:48:12.165Z,2120
2016-11-27T09:49:12.155Z,2180
2016-11-27T09:50:12.122Z,2285
2016-11-27T09:51:12.115Z,1950
2016-11-27T09:52:12.101Z,2035
2016-11-27T09:53:12.076Z,2095
2016-11-27T09:54:12.050Z,2490
2016-11-27T09:55:12.058Z,2135
2016-11-27T09:56:12.019Z,1710
2016-11-27T09:57:11.995Z,1360
2016-11-27T09:58:11.970Z,1565
2016-11-27T09:59:11.983Z,1610
2016-11-27T10:00:11.919Z,1535
2016-11-27T10:01:11.930Z,1515
2016-11-27T10:02:11.933Z,1660
2016-11-27T10:03:11.910Z,1960
2016-11-27T10:04:11.855Z,2060
2016-11-27T10:05:11.850Z,2125
2016-11-27T10:06:11.850Z,2065
2016-11-27T10:07:11.841Z,2010
2016-11-27T10:08:11.787Z,2180
2016-11-27T10:09:11.794Z,2235
2016-11-27T10:10:11.738Z,2120
2016-11-27T10:11:11.740Z,2345
2016-11-27T10:12:11.720Z,2580
2016-11-27T10:13:11.923Z,2305
2016-11-27T10:14:11.693Z,2280
2016-11-27T10:15:11.704Z,2340
2016-11-27T10:16:11.645Z,2115
2016-11-27T10:17:11.645Z,2405
2016-11-27T10:18:11.627Z,2125
2016-11-27T10:19:11.619Z,2420
2016-11-27T10:20:11.581Z,2595
2016-11-27T10:21:11.564Z,2350
2016-11-27T10:22:11.557Z,1390
2016-11-27T10:23:11.537Z,2175
2016-11-27T10:24:11.509Z,1880
2016-11-27T10:25:11.490Z,2025
2016-11-27T10:26:11.511Z,1975
2016-11-27T10:27:11.440Z,2005
2016-11-27T10:28:11.470Z,1565
2016-11-27T10:29:11.420Z,2705
2016-11-27T10:30:11.421Z,2920
2016-11-27T10:31:11.387Z,2290
2016-11-27T10:32:11.364Z,1515
2016-11-27T10:33:11.341Z,1540
2016-11-27T10:34:11.329Z,2350
2016-11-27T10:35:11.309Z,1910
2016-11-27T10:36:11.313Z,1725
2016-11-27T10:37:11.288Z,1735
2016-11-27T10:38:11.271Z,1660
2016-11-27T10:39:11.240Z,1490
2016-11-27T10:40:11.219Z,1655
2016-11-27T10:41:11.217Z,1740
2016-11-27T10:42:11.178Z,1900
2016-11-27T10:43:11.147Z,1805
2016-11-27T10:44:11.150Z,1845
2016-11-27T10:45:11.155Z,1870
2016-11-27T10:46:11.129Z,1780
2016-11-27T10:47:11.114Z,1770
2016-11-27T10:48:11.103Z,1915
2016-11-27T10:49:11.070Z,1945
2016-11-27T10:50:11.040Z,1920
2016-11-27T10:51:11.033Z,1710
2016-11-27T10:52:11.060Z,1570
2016-11-27T10:53:10.992Z,1700
2016-11-27T10:54:10.982Z,1985
2016-11-27T10:55:11.153Z,2100
2016-11-27T10:56:11.152Z,2035
2016-11-27T10:57:10.966Z,1845
2016-11-27T10:58:10.920Z,2110
2016-11-27T10:59:10.924Z,2125
2016-11-27T11:00:10.892Z,2250
2016-11-27T11:01:10.877Z,2380
2016-11-27T11:02:10.847Z,2065
2016-11-27T11:03:10.834Z,1810
2016-11-27T11:04:10.803Z,1590
2016-11-27T11:05:10.805Z,1640
2016-11-27T11:06:10.770Z,1545
2016-11-27T11:07:10.779Z,1835
2016-11-27T11:08:10.765Z,2015
2016-11-27T11:09:10.779Z,2160
2016-11-27T11:10:10.729Z,2180
2016-11-27T11:11:10.712Z,2035
2016-11-27T11:12:10.689Z,1760
2016-11-27T11:13:10.668Z,1700
2016-11-27T11:14:10.659Z,1830
2016-11-27T11:15:10.626Z,1865
2016-11-27T11:16:10.624Z,1695
2016-11-27T11:17:10.575Z,1535
2016-11-27T11:18:10.596Z,1530
2016-11-27T11:19:10.577Z,1670
2016-11-27T11:20:10.514Z,2150
2016-11-27T11:21:10.558Z,1965
2016-11-27T11:22:10.511Z,1990
2016-11-27T11:23:10.475Z,1985
2016-11-27T11:24:10.650Z,1670
2016-11-27T11:25:10.465Z,1780
2016-11-27T11:26:10.428Z,1770
2016-11-27T11:27:10.428Z,1920
2016-11-27T11:28:10.386Z,2265
2016-11-27T11:29:10.396Z,2410
2016-11-27T11:30:10.347Z,1900
2016-11-27T11:31:10.351Z,1570
2016-11-27T11:32:10.316Z,1800
2016-11-27T11:33:10.335Z,2265
2016-11-27T11:34:10.306Z,2400
2016-11-27T11:35:10.561Z,2360
2016-11-27T11:36:10.241Z,1930
2016-11-27T11:37:10.257Z,1305
2016-11-27T11:38:10.239Z,2005
2016-11-27T11:39:10.193Z,2310
2016-11-27T11:40:10.184Z,2360
2016-11-27T11:41:10.150Z,2300
2016-11-27T11:42:10.179Z,3220
2016-11-27T11:43:10.154Z,2530
2016-11-27T11:44:10.120Z,2055
2016-11-27T11:45:10.113Z,1555
2016-11-27T11:46:10.089Z,3010
2016-11-27T11:47:10.065Z,1995
2016-11-27T11:48:10.062Z,2420
2016-11-27T11:49:10.003Z,2215
2016-11-27T11:50:10.015Z,1990
2016-11-27T11:51:10.165Z,1845
2016-11-27T11:52:09.948Z,1625
2016-11-27T11:53:09.949Z,1735
2016-11-27T11:54:09.934Z,1720
2016-11-27T11:55:09.889Z,2040
2016-11-27T11:56:09.888Z,1815
2016-11-27T11:57:09.909Z,1810
2016-11-27T11:58:09.871Z,1760
2016-11-27T11:59:09.826Z,2030
2016-11-27T12:00:09.814Z,1720
2016-11-27T12:01:09.778Z,1635
2016-11-27T12:02:09.764Z,1910
2016-11-27T12:03:09.747Z,1495
2016-11-27T12:04:09.771Z,1150
2016-11-27T12:05:09.733Z,1260
2016-11-27T12:06:09.688Z,1360
2016-11-27T12:07:09.677Z,1515
2016-11-27T12:08:09.677Z,1430
2016-11-27T12:09:09.633Z,1110
2016-11-27T12:10:09.917Z,1220
2016-11-27T12:11:09.615Z,1555
2016-11-27T12:12:09.606Z,1180
2016-11-27T12:13:09.582Z,1050
2016-11-27T12:14:09.856Z,1450
2016-11-27T12:15:09.511Z,1175
2016-11-27T12:16:09.516Z,1075
2016-11-27T12:17:09.498Z,1145
2016-11-27T12:18:09.682Z,1035
2016-11-27T12:19:09.463Z,960
2016-11-27T12:20:09.417Z,885
2016-11-27T12:21:09.391Z,1105
2016-11-27T12:22:09.393Z,885
2016-11-27T12:23:09.382Z,840
2016-11-27T12:24:09.373Z,1020
2016-11-27T12:25:09.313Z,980
2016-11-27T12:26:09.335Z,1115
2016-11-27T12:27:09.598Z,1050
2016-11-27T12:28:09.262Z,940
2016-11-27T12:29:09.237Z,935
2016-11-27T12:30:09.267Z,1110
2016-11-27T12:31:09.235Z,940
2016-11-27T12:32:09.169Z,950
2016-11-27T12:33:09.463Z,945
2016-11-27T12:34:09.185Z,950
2016-11-27T12:35:09.143Z,1100
2016-11-27T12:36:09.123Z,995
2016-11-27T12:37:09.428Z,1370
2016-11-27T12:38:09.103Z,1205
2016-11-27T12:39:09.052Z,1250
2016-11-27T12:40:09.061Z,1185
2016-11-27T12:41:09.022Z,1235
2016-11-27T12:42:09.016Z,790
2016-11-27T12:43:09.002Z,1115
2016-11-27T12:44:09.247Z,1060
2016-11-27T12:45:09.247Z,1030
2016-11-27T12:46:09.137Z,825
2016-11-27T12:47:08.983Z,1040
2016-11-27T12:48:08.904Z,780
2016-11-27T12:49:08.890Z,845
2016-11-27T12:50:08.870Z,675
2016-11-27T12:51:08.829Z,715
2016-11-27T12:52:08.795Z,685
2016-11-27T12:53:08.779Z,755
2016-11-27T12:54:08.764Z,645
2016-11-27T12:55:08.736Z,795
2016-11-27T12:56:08.719Z,655
2016-11-27T12:57:08.713Z,795
2016-11-27T12:58:08.698Z,730
2016-11-27T12:59:08.997Z,710
2016-11-27T13:00:08.666Z,755
2016-11-27T13:01:08.619Z,745
2016-11-27T13:02:08.623Z,740
2016-11-27T13:03:08.599Z,850
2016-11-27T13:04:08.584Z,960
2016-11-27T13:05:08.533Z,955
2016-11-27T13:06:08.535Z,1010
2016-11-27T13:07:08.512Z,1035
2016-11-27T13:08:08.501Z,950
2016-11-27T13:09:08.488Z,915
2016-11-27T13:10:08.436Z,945
2016-11-27T13:11:08.427Z,1080
2016-11-27T13:12:08.604Z,1085
2016-11-27T13:13:08.375Z,950
2016-11-27T13:14:08.365Z,875
2016-11-27T13:15:08.379Z,955
2016-11-27T13:16:08.350Z,940
2016-11-27T13:17:08.344Z,700
2016-11-27T13:18:08.281Z,1020
2016-11-27T13:19:08.286Z,1385
2016-11-27T13:20:08.254Z,1085
2016-11-27T13:21:08.251Z,900
2016-11-27T13:22:08.211Z,1305
2016-11-27T13:23:08.194Z,1095
2016-11-27T13:24:08.177Z,890
2016-11-27T13:25:08.164Z,905
2016-11-27T13:26:08.151Z,1020
2016-11-27T13:27:08.101Z,990
2016-11-27T13:28:08.081Z,1095
2016-11-27T13:29:08.067Z,1035
2016-11-27T13:30:08.064Z,650
2016-11-27T13:31:08.053Z,650
2016-11-27T13:32:08.016Z,890
2016-11-27T13:33:07.987Z,865
2016-11-27T13:34:08.003Z,885
2016-11-27T13:35:07.963Z,875
2016-11-27T13:36:07.934Z,875
2016-11-27T13:37:07.917Z,815
2016-11-27T13:38:07.896Z,850
2016-11-27T13:39:07.888Z,620
2016-11-27T13:40:08.082Z,730
2016-11-27T13:41:07.860Z,550
2016-11-27T13:42:07.857Z,545
2016-11-27T13:43:07.801Z,575
2016-11-27T13:44:07.784Z,615
2016-11-27T13:45:07.753Z,630
2016-11-27T13:46:07.742Z,665
2016-11-27T13:47:07.728Z,660
2016-11-27T13:48:07.700Z,705
2016-11-27T13:49:07.685Z,735
2016-11-27T13:50:07.646Z,755
2016-11-27T13:51:07.631Z,760
2016-11-27T13:52:07.645Z,715
2016-11-27T13:53:07.617Z,665
2016-11-27T13:54:07.608Z,620
2016-11-27T13:55:07.586Z,605
2016-11-27T13:56:07.541Z,640
2016-11-27T13:57:07.832Z,605
2016-11-27T13:58:07.500Z,485
2016-11-27T13:59:07.501Z,425
2016-11-27T14:00:07.449Z,405
2016-11-27T14:01:07.445Z,395
2016-11-27T14:02:07.461Z,380
2016-11-27T14:03:07.395Z,365
2016-11-27T14:04:07.402Z,370